Time;durP1;ratioP1;P1;durP2;ratioP2;P2;SDS_P1;SDS_P2;PMS_P1;PMS_P2;Temp;Humidity;BMP_temperature;BMP_pressure;BME280_temperature;BME280_humidity;BME280_pressure;Samples;Min_cycle;Max_cycle;Signal;HPM_P1;HPM_P2
2024/03/24 00:01:54;;;;;;;2.50;2.30;;;;;;;9.96;54.47;98113.44;6890032;28;20595;-83
2024/03/24 00:05:21;;;;;;;2.10;2.00;;;;;;;10.11;54.85;98099.69;6888270;28;20204;-83
2024/03/24 00:08:41;;;;;;;1.90;1.80;;;;;;;9.73;54.57;98097.03;6876780;28;20319;-83
2024/03/24 00:12:03;;;;;;;1.90;1.80;;;;;;;9.49;55.78;98105.00;6863757;28;20655;-83
2024/03/24 00:15:24;;;;;;;4.33;2.83;;;;;;;9.56;55.99;98100.44;6863991;28;20304;-83
2024/03/24 00:22:25;;;;;;;2.10;1.80;;;;;;;9.97;55.05;98098.91;6889221;28;20727;-83
2024/03/24 00:25:47;;;;;;;2.03;1.90;;;;;;;10.07;54.30;98099.31;6890414;28;20682;-83
2024/03/24 00:29:11;;;;;;;2.77;2.10;;;;;;;9.46;55.48;98073.97;6889805;28;20385;-82
2024/03/24 00:32:32;;;;;;;2.63;2.00;;;;;;;9.68;56.15;98094.16;6893912;28;20677;-83
2024/03/24 00:35:54;;;;;;;1.77;1.77;;;;;;;9.64;56.67;98084.03;6895043;28;20299;-83
2024/03/24 00:39:16;;;;;;;2.40;1.90;;;;;;;9.66;55.53;98049.66;6893218;28;20224;-83
2024/03/24 00:42:37;;;;;;;4.57;2.20;;;;;;;9.78;55.54;98062.19;6894394;28;20290;-83
2024/03/24 00:46:01;;;;;;;3.20;2.47;;;;;;;9.61;56.28;98060.22;6893500;28;20304;-83
2024/03/24 00:49:22;;;;;;;2.17;1.97;;;;;;;9.73;55.82;98059.34;6891692;28;20231;-83
2024/03/24 00:52:44;;;;;;;2.73;2.40;;;;;;;9.73;55.18;98028.88;6894458;28;20223;-83
2024/03/24 00:56:08;;;;;;;2.77;2.47;;;;;;;9.84;56.11;98069.41;6881895;28;20213;-83
2024/03/24 00:59:29;;;;;;;3.80;2.07;;;;;;;9.82;55.16;98049.97;6867711;28;20232;-83
2024/03/24 01:02:51;;;;;;;2.77;2.57;;;;;;;9.79;55.20;98011.84;6867208;28;20209;-83
2024/03/24 01:06:13;;;;;;;2.07;1.90;;;;;;;9.87;55.22;98047.41;6867114;28;20562;-83
2024/03/24 01:09:35;;;;;;;2.20;2.00;;;;;;;9.25;57.26;98049.28;6868054;28;20347;-82
2024/03/24 01:12:56;;;;;;;1.80;1.70;;;;;;;8.68;58.49;98049.34;6873072;28;20675;-83
2024/03/24 01:16:40;;;;;;;2.33;2.10;;;;;;;9.30;58.24;98047.63;6893819;28;20213;-82
2024/03/24 01:20:06;;;;;;;2.30;1.97;;;;;;;9.49;57.13;98035.91;6894334;28;20303;-83
2024/03/24 01:23:50;;;;;;;2.23;2.03;;;;;;;8.93;57.21;97974.16;6894583;28;20213;-82
2024/03/24 01:27:12;;;;;;;2.60;2.00;;;;;;;9.03;57.23;98010.31;6893308;28;20324;-83
2024/03/24 01:30:37;;;;;;;3.07;2.03;;;;;;;9.44;56.62;98022.28;6893581;28;20216;-83
2024/03/24 01:33:58;;;;;;;2.43;1.83;;;;;;;9.56;56.71;98015.16;6894049;28;20296;-83
2024/03/24 01:37:20;;;;;;;2.57;2.10;;;;;;;9.85;55.72;98037.91;6892439;28;20663;-83
2024/03/24 01:40:46;;;;;;;3.93;1.73;;;;;;;9.60;56.38;98026.28;6894109;28;20302;-83
2024/03/24 01:44:09;;;;;;;2.00;1.90;;;;;;;9.58;56.13;98028.41;6893497;28;20558;-83
2024/03/24 01:47:30;;;;;;;2.00;1.90;;;;;;;9.63;56.29;98034.75;6873016;28;20260;-83
2024/03/24 01:50:52;;;;;;;1.90;1.80;;;;;;;9.35;57.31;98028.97;6893586;28;20215;-83
2024/03/24 01:54:14;;;;;;;2.97;2.10;;;;;;;9.05;58.16;98045.88;6893527;28;20653;-83
2024/03/24 01:57:35;;;;;;;2.20;2.00;;;;;;;8.96;59.23;98038.25;6891930;28;20225;-82
2024/03/24 02:01:07;;;;;;;2.30;2.10;;;;;;;9.34;58.09;98016.53;6890827;28;20299;-83
2024/03/24 02:04:36;;;;;;;2.47;2.00;;;;;;;9.52;58.01;98034.66;6865842;28;20366;-83
2024/03/24 02:07:57;;;;;;;2.10;1.90;;;;;;;9.45;57.38;98028.50;6876682;28;20228;-83
2024/03/24 02:11:20;;;;;;;4.07;2.00;;;;;;;9.82;57.21;98033.81;6866178;28;20209;-83
2024/03/24 02:14:51;;;;;;;2.43;2.20;;;;;;;9.51;58.49;98038.38;6866270;28;20766;-83
2024/03/24 02:18:14;;;;;;;2.10;2.00;;;;;;;9.39;58.92;98046.31;6866353;28;20698;-82
2024/03/24 02:21:36;;;;;;;2.20;2.00;;;;;;;9.11;59.73;98039.63;6869722;28;20213;-82
2024/03/24 02:25:02;;;;;;;2.43;1.90;;;;;;;9.12;60.58;98025.16;6889051;28;20205;-82
2024/03/24 02:28:24;;;;;;;2.13;2.00;;;;;;;8.96;60.87;98035.56;6914260;28;20295;-84
2024/03/24 02:31:45;;;;;;;2.03;1.93;;;;;;;9.13;59.97;98022.25;6889619;28;20757;-83
2024/03/24 02:35:06;;;;;;;2.33;2.23;;;;;;;9.08;59.80;98005.09;6888141;28;20201;-83
2024/03/24 02:38:28;;;;;;;2.30;2.10;;;;;;;9.17;59.24;97988.50;6890859;28;20323;-82
2024/03/24 02:41:50;;;;;;;2.57;2.13;;;;;;;9.50;58.47;98010.63;6891115;28;20299;-83
2024/03/24 02:45:12;;;;;;;1.83;1.73;;;;;;;9.40;58.72;98004.91;6891096;28;20264;-83
2024/03/24 02:48:34;;;;;;;2.33;1.93;;;;;;;9.56;58.45;97984.75;6890843;28;20248;-83
2024/03/24 02:51:54;;;;;;;2.67;2.30;;;;;;;9.76;57.28;98002.38;6891371;28;20303;-83
2024/03/24 02:55:16;;;;;;;2.07;1.97;;;;;;;9.80;56.98;97978.53;6890305;28;20220;-83
2024/03/24 02:58:39;;;;;;;4.27;2.40;;;;;;;9.77;57.45;97995.13;6889818;28;20267;-83
2024/03/24 03:02:00;;;;;;;2.10;2.00;;;;;;;9.64;57.80;97984.47;6891543;28;20212;-83
2024/03/24 03:05:29;;;;;;;3.00;2.03;;;;;;;9.77;57.63;97979.81;6891271;28;20229;-84
2024/03/24 03:08:50;;;;;;;2.10;1.90;;;;;;;9.86;57.00;97986.53;6890770;28;20370;-83
2024/03/24 03:12:10;;;;;;;2.00;1.90;;;;;;;9.78;57.01;97973.38;6891988;28;20232;-82
2024/03/24 03:15:33;;;;;;;1.90;1.80;;;;;;;10.20;56.55;97977.97;6891195;28;20831;-83
2024/03/24 03:18:54;;;;;;;3.03;1.93;;;;;;;9.99;55.82;97981.03;6891976;28;20258;-83
2024/03/24 03:22:15;;;;;;;3.23;2.10;;;;;;;9.99;56.79;97964.06;6899605;28;20258;-83
2024/03/24 03:25:37;;;;;;;2.20;2.10;;;;;;;10.33;55.01;97971.63;6894770;28;20247;-83
2024/03/24 03:28:57;;;;;;;1.90;1.80;;;;;;;9.94;55.49;97977.38;6888277;28;20232;-83
2024/03/24 03:32:20;;;;;;;1.93;1.83;;;;;;;10.11;55.74;97981.97;6887570;28;20586;-84
2024/03/24 03:35:42;;;;;;;2.60;2.40;;;;;;;9.77;55.71;97978.97;6888927;28;20238;-83
2024/03/24 03:39:04;;;;;;;3.80;2.60;;;;;;;9.82;56.78;97973.75;6888303;28;20220;-83
2024/03/24 03:42:26;;;;;;;3.57;2.50;;;;;;;10.17;55.22;97973.00;6887995;28;20208;-83
2024/03/24 03:45:47;;;;;;;2.10;2.00;;;;;;;9.97;54.73;97948.13;6886500;28;20981;-84
2024/03/24 03:49:14;;;;;;;2.10;1.90;;;;;;;10.10;54.93;97966.88;6887226;28;20232;-83
2024/03/24 03:52:35;;;;;;;2.40;2.20;;;;;;;10.12;54.70;97945.13;6861686;28;20197;-84
2024/03/24 03:55:57;;;;;;;1.97;1.87;;;;;;;9.84;56.13;97955.50;6861603;28;20212;-83
2024/03/24 03:59:19;;;;;;;2.13;2.03;;;;;;;9.97;55.35;97937.34;6884780;28;20228;-84
2024/03/24 04:02:40;;;;;;;2.40;2.00;;;;;;;10.16;54.00;97939.06;6888125;28;20201;-83
2024/03/24 04:06:05;;;;;;;2.03;1.93;;;;;;;10.02;55.59;97950.97;6886095;28;20302;-83
2024/03/24 04:09:26;;;;;;;2.47;2.23;;;;;;;9.87;56.38;97939.72;6893159;28;20383;-83
2024/03/24 04:12:47;;;;;;;2.00;1.90;;;;;;;9.82;56.56;97938.75;6894293;28;20209;-83
2024/03/24 04:16:09;;;;;;;2.20;2.10;;;;;;;9.85;56.48;97947.22;6893271;28;20213;-82
2024/03/24 04:19:30;;;;;;;2.20;1.87;;;;;;;9.22;55.70;97931.38;6891670;28;20255;-83
2024/03/24 04:22:55;;;;;;;1.67;1.67;;;;;;;9.10;57.54;97950.06;6866073;28;20244;-84
2024/03/24 04:26:15;;;;;;;2.10;1.90;;;;;;;8.84;57.79;97949.41;6866135;28;20761;-83
2024/03/24 04:29:37;;;;;;;1.90;1.80;;;;;;;9.07;57.88;97952.38;6865778;28;20236;-83
2024/03/24 04:32:58;;;;;;;2.07;1.93;;;;;;;9.42;56.63;97962.50;6881065;28;20300;-84
2024/03/24 04:36:19;;;;;;;1.90;1.80;;;;;;;9.55;56.57;97950.78;6892433;28;20208;-83
2024/03/24 04:39:41;;;;;;;1.80;1.73;;;;;;;9.59;56.70;97960.06;6894478;28;20832;-84
2024/03/24 04:43:04;;;;;;;1.90;1.80;;;;;;;9.79;56.00;97947.25;6892148;28;20200;-84
2024/03/24 04:46:26;;;;;;;1.63;1.63;;;;;;;9.66;56.06;97940.16;6891601;28;20586;-85
2024/03/24 04:49:47;;;;;;;2.20;2.00;;;;;;;9.78;55.87;97964.47;6891210;28;20229;-84
2024/03/24 04:53:08;;;;;;;2.00;1.80;;;;;;;9.23;57.25;97968.84;6891049;28;20696;-83
2024/03/24 04:56:31;;;;;;;2.00;1.90;;;;;;;9.77;55.98;97960.13;6890626;28;20204;-84
2024/03/24 04:59:53;;;;;;;1.87;1.77;;;;;;;9.66;56.15;97968.91;6882144;28;20652;-84
2024/03/24 05:03:13;;;;;;;2.40;1.90;;;;;;;9.76;55.69;97977.31;6888314;28;20197;-84
2024/03/24 05:06:35;;;;;;;1.90;1.80;;;;;;;9.50;56.77;97970.28;6891157;28;20215;-84
2024/03/24 05:09:56;;;;;;;1.93;1.83;;;;;;;9.49;56.42;97967.81;6891227;28;20428;-84
2024/03/24 05:13:20;;;;;;;1.90;1.83;;;;;;;9.98;55.51;97970.50;6891405;28;20270;-84
2024/03/24 05:16:41;;;;;;;1.90;1.80;;;;;;;9.91;54.87;97954.41;6889653;28;20204;-83
2024/03/24 05:20:03;;;;;;;2.33;2.10;;;;;;;9.18;55.86;97967.81;6891202;28;20209;-82
2024/03/24 05:23:24;;;;;;;1.80;1.70;;;;;;;9.40;55.45;97961.84;6892078;28;20209;-83
2024/03/24 05:26:46;;;;;;;1.67;1.57;;;;;;;8.78;55.37;97927.94;6891874;28;20780;-83
2024/03/24 05:30:10;;;;;;;2.10;1.93;;;;;;;9.24;55.09;97980.41;6892366;28;20680;-82
2024/03/24 05:33:30;;;;;;;2.03;1.93;;;;;;;9.46;55.26;97971.75;6892263;28;20339;-82
2024/03/24 05:36:52;;;;;;;2.03;1.93;;;;;;;9.18;55.35;97984.78;6892261;28;20224;-83
2024/03/24 05:40:13;;;;;;;1.97;1.87;;;;;;;9.02;55.58;97973.69;6893226;28;20350;-82
2024/03/24 05:43:35;;;;;;;2.00;1.90;;;;;;;9.37;55.31;97978.44;6892383;28;20197;-83
2024/03/24 05:46:58;;;;;;;1.80;1.70;;;;;;;9.32;54.19;97972.06;6891739;28;20259;-82
2024/03/24 05:50:19;;;;;;;2.43;1.83;;;;;;;9.05;54.78;97970.59;6890087;28;20274;-82
2024/03/24 05:53:40;;;;;;;1.60;1.60;;;;;;;9.41;53.68;97987.75;6863947;28;20208;-83
2024/03/24 05:57:01;;;;;;;3.53;2.43;;;;;;;9.47;54.62;97992.25;6889331;28;20705;-83
2024/03/24 06:00:22;;;;;;;1.90;1.80;;;;;;;9.71;53.70;97987.91;6889587;28;20661;-83
2024/03/24 06:03:45;;;;;;;1.80;1.70;;;;;;;10.00;52.58;97981.88;6897162;28;20286;-83
2024/03/24 06:07:07;;;;;;;2.00;1.90;;;;;;;9.88;53.59;97994.41;6889708;28;20669;-85
2024/03/24 06:10:29;;;;;;;1.80;1.70;;;;;;;9.47;53.40;97973.44;6889062;28;20228;-82
2024/03/24 06:13:49;;;;;;;2.00;1.90;;;;;;;9.55;53.58;97997.34;6889329;28;20355;-83
2024/03/24 06:17:11;;;;;;;1.80;1.70;;;;;;;9.46;54.05;97998.66;6891865;28;20324;-83
2024/03/24 06:20:38;;;;;;;2.13;1.80;;;;;;;9.84;54.23;98006.66;6893882;28;20680;-83
2024/03/24 06:23:59;;;;;;;2.70;1.90;;;;;;;9.55;54.46;98004.59;6889976;28;20219;-83
2024/03/24 06:27:21;;;;;;;3.87;1.90;;;;;;;10.00;53.61;97992.63;6888360;28;20898;-83
2024/03/24 06:30:41;;;;;;;2.73;1.90;;;;;;;9.82;53.66;98006.06;6889084;28;20727;-83
2024/03/24 06:34:03;;;;;;;1.90;1.80;;;;;;;9.94;52.98;97997.06;6889038;28;20239;-83
2024/03/24 06:37:26;;;;;;;2.07;1.80;;;;;;;9.92;53.64;97995.63;6888194;28;20292;-83
2024/03/24 06:40:48;;;;;;;2.00;1.90;;;;;;;9.60;53.95;97994.84;6888425;28;20270;-82
2024/03/24 06:44:13;;;;;;;2.13;1.93;;;;;;;10.24;52.55;98002.59;6887761;28;20208;-83
2024/03/24 06:47:34;;;;;;;2.00;1.90;;;;;;;10.24;52.92;98006.13;6888057;28;20225;-83
2024/03/24 06:50:56;;;;;;;1.93;1.80;;;;;;;9.59;53.51;98008.50;6888179;28;20292;-81
2024/03/24 06:54:18;;;;;;;2.00;1.90;;;;;;;9.92;53.17;98012.59;6887486;28;20355;-83
2024/03/24 06:57:39;;;;;;;4.20;1.80;;;;;;;9.80;53.14;98018.91;6888045;28;20638;-83
2024/03/24 07:01:00;;;;;;;3.27;2.33;;;;;;;9.72;53.78;97998.47;6888671;28;20288;-83
2024/03/24 07:04:21;;;;;;;2.43;2.23;;;;;;;9.59;54.15;98027.34;6888914;28;20205;-83
2024/03/24 07:07:43;;;;;;;3.70;2.00;;;;;;;10.40;52.83;98007.41;6878929;28;20371;-82
2024/03/24 07:11:05;;;;;;;2.47;2.17;;;;;;;10.31;53.40;98023.03;6884923;28;20362;-82
2024/03/24 07:14:26;;;;;;;2.53;1.87;;;;;;;10.20;52.70;98023.75;6888115;28;20219;-83
2024/03/24 07:17:47;;;;;;;1.87;1.73;;;;;;;10.41;52.73;98033.31;6887396;28;20779;-83
2024/03/24 07:21:08;;;;;;;1.97;1.87;;;;;;;10.57;52.91;98027.34;6889445;28;20276;-83
2024/03/24 07:24:29;;;;;;;2.10;1.90;;;;;;;10.43;54.05;98031.19;6891715;28;20304;-83
2024/03/24 07:27:52;;;;;;;5.10;1.80;;;;;;;10.14;54.03;98031.91;6887321;28;20275;-83
2024/03/24 07:31:18;;;;;;;2.03;1.87;;;;;;;10.78;52.63;98022.31;6887838;28;20295;-83
2024/03/24 07:34:41;;;;;;;1.40;1.40;;;;;;;10.72;52.27;98031.31;6888379;28;20228;-83
2024/03/24 07:38:02;;;;;;;2.10;2.00;;;;;;;11.23;52.21;98025.50;6885375;28;20232;-83
2024/03/24 07:41:23;;;;;;;2.80;2.00;;;;;;;11.61;50.30;98020.59;6860887;28;20571;-83
2024/03/24 07:44:46;;;;;;;2.07;1.97;;;;;;;11.45;50.57;98022.03;6860403;28;20212;-81
2024/03/24 07:48:07;;;;;;;2.10;1.90;;;;;;;11.60;49.52;98006.28;6859884;28;20240;-83
2024/03/24 07:51:30;;;;;;;1.77;1.67;;;;;;;11.75;49.06;97990.47;6874157;28;20231;-83
2024/03/24 07:54:51;;;;;;;1.90;1.80;;;;;;;12.26;48.61;97987.94;6886667;28;20598;-83
2024/03/24 07:58:12;;;;;;;1.83;1.73;;;;;;;11.90;47.70;98000.81;6886847;28;20267;-83
2024/03/24 08:01:34;;;;;;;2.70;1.97;;;;;;;12.30;44.76;97997.22;6887237;28;20351;-83
2024/03/24 08:04:56;;;;;;;1.90;1.80;;;;;;;12.62;42.98;97992.25;6887931;28;20208;-85
2024/03/24 08:08:17;;;;;;;1.67;1.57;;;;;;;13.06;43.14;97992.44;6887945;28;20705;-85
2024/03/24 08:11:38;;;;;;;1.83;1.73;;;;;;;11.93;43.45;97994.97;6890176;28;20306;-85
2024/03/24 08:14:59;;;;;;;2.40;1.83;;;;;;;11.83;43.31;98000.13;6870246;28;20206;-82
2024/03/24 08:18:21;;;;;;;2.00;1.53;;;;;;;12.05;43.25;97987.69;6860244;28;20287;-82
2024/03/24 08:21:45;;;;;;;2.10;1.90;;;;;;;11.90;43.50;97980.06;6860633;28;20206;-82
2024/03/24 08:25:06;;;;;;;1.80;1.70;;;;;;;11.84;43.76;97994.50;6864072;28;20729;-82
2024/03/24 08:28:28;;;;;;;1.90;1.80;;;;;;;11.48;44.38;97970.31;6883063;28;20223;-84
2024/03/24 08:31:49;;;;;;;1.60;1.50;;;;;;;11.19;44.73;97992.75;6889097;28;20261;-83
2024/03/24 08:35:11;;;;;;;1.70;1.60;;;;;;;11.25;45.58;98002.63;6887090;28;20302;-83
2024/03/24 08:38:33;;;;;;;2.20;1.73;;;;;;;11.01;45.81;98011.66;6886684;28;20232;-82
2024/03/24 08:41:57;;;;;;;3.50;1.90;;;;;;;11.52;45.28;98011.97;6886657;28;20211;-82
2024/03/24 08:45:17;;;;;;;1.90;1.80;;;;;;;11.24;45.61;98005.53;6862644;28;20655;-83
2024/03/24 08:48:39;;;;;;;2.10;1.90;;;;;;;11.30;46.42;98004.63;6858894;28;20244;-82
2024/03/24 08:52:02;;;;;;;3.57;1.97;;;;;;;11.22;45.22;98007.66;6861084;28;20352;-82
2024/03/24 08:55:25;;;;;;;2.17;2.00;;;;;;;11.43;44.98;98007.13;6881852;28;20295;-83
2024/03/24 08:58:46;;;;;;;4.77;1.97;;;;;;;11.87;44.51;98006.72;6890670;28;20259;-82
2024/03/24 09:02:08;;;;;;;3.13;2.10;;;;;;;11.33;44.91;97983.41;6892770;28;20367;-83
2024/03/24 09:05:29;;;;;;;2.30;2.10;;;;;;;12.16;44.65;98011.22;6894359;28;20216;-84
2024/03/24 09:08:52;;;;;;;2.90;2.00;;;;;;;12.13;43.24;97998.97;6892985;28;20231;-82
2024/03/24 09:12:13;;;;;;;2.50;2.30;;;;;;;11.43;43.97;98004.44;6892514;28;20342;-82
2024/03/24 09:15:34;;;;;;;2.87;2.00;;;;;;;11.60;44.48;98009.00;6866304;28;20220;-83
2024/03/24 09:18:56;;;;;;;3.60;2.20;;;;;;;11.91;43.29;98005.16;6863974;28;20372;-83
2024/03/24 09:22:18;;;;;;;3.40;2.20;;;;;;;11.49;43.89;98015.16;6865057;28;20274;-83
2024/03/24 09:25:40;;;;;;;2.50;2.30;;;;;;;11.38;44.53;98031.28;6864930;28;20212;-83
2024/03/24 09:29:01;;;;;;;3.17;2.50;;;;;;;11.42;43.40;98017.13;6863047;28;20241;-84
2024/03/24 09:32:22;;;;;;;4.37;2.90;;;;;;;11.21;44.51;98023.00;6863972;28;20269;-83
2024/03/24 09:35:44;;;;;;;5.70;3.10;;;;;;;11.38;44.06;98017.78;6864053;28;20206;-83
2024/03/24 09:39:06;;;;;;;3.30;2.43;;;;;;;11.46;43.31;98006.69;6864899;28;20612;-83
2024/03/24 09:42:29;;;;;;;4.07;2.57;;;;;;;11.35;43.24;98007.47;6864785;28;20708;-84
2024/03/24 09:45:51;;;;;;;5.40;2.47;;;;;;;11.75;43.66;98019.38;6884905;28;20210;-84
2024/03/24 09:49:14;;;;;;;4.70;2.30;;;;;;;12.00;43.13;98028.09;6890679;28;20239;-84
2024/03/24 09:52:35;;;;;;;3.77;3.03;;;;;;;11.05;43.70;98028.22;6891543;28;20229;-84
2024/03/24 09:55:57;;;;;;;5.00;2.90;;;;;;;11.51;43.37;98026.53;6883968;28;20229;-85
2024/03/24 09:59:19;;;;;;;4.90;2.90;;;;;;;11.52;43.14;98011.97;6881361;28;20221;-84
2024/03/24 10:02:42;;;;;;;4.40;3.07;;;;;;;11.05;44.49;98031.72;6891538;28;20233;-84
2024/03/24 10:06:04;;;;;;;5.13;2.43;;;;;;;11.28;44.15;98002.16;6890159;28;20288;-84
2024/03/24 10:09:24;;;;;;;3.17;2.50;;;;;;;11.68;43.63;98010.56;6890502;28;20723;-87
2024/03/24 10:12:53;;;;;;;5.73;2.90;;;;;;;11.48;43.63;98009.97;6889530;28;20211;-84
2024/03/24 10:16:15;;;;;;;5.07;2.53;;;;;;;11.51;43.73;98026.53;6890636;28;20210;-83
2024/03/24 10:19:38;;;;;;;4.53;3.20;;;;;;;10.46;44.76;97995.75;6886866;28;20287;-84
2024/03/24 10:23:00;;;;;;;5.63;2.63;;;;;;;11.14;44.60;98043.88;6865556;28;20213;-85
2024/03/24 10:26:23;;;;;;;4.80;2.93;;;;;;;11.02;45.01;98032.19;6863978;28;20300;-84
2024/03/24 10:29:44;;;;;;;4.90;2.93;;;;;;;11.38;44.30;98021.31;6865200;28;20340;-83
2024/03/24 10:33:07;;;;;;;3.93;2.47;;;;;;;11.53;44.87;98010.09;6864989;28;20213;-83
2024/03/24 10:36:30;;;;;;;2.70;2.33;;;;;;;11.33;43.79;98009.59;6863646;28;20208;-88
2024/03/24 10:39:52;;;;;;;4.00;2.10;;;;;;;11.57;44.00;98009.41;6863843;28;20341;-84
2024/03/24 10:43:12;;;;;;;5.60;2.53;;;;;;;11.36;44.44;98012.66;6864597;28;20214;-83
2024/03/24 10:46:34;;;;;;;5.50;3.43;;;;;;;10.90;45.53;98011.59;6862593;28;20215;-83
2024/03/24 10:49:58;;;;;;;5.40;3.20;;;;;;;11.21;44.78;97996.03;6865024;28;20232;-82
2024/03/24 10:53:21;;;;;;;2.50;2.30;;;;;;;11.25;45.03;97997.22;6890921;28;20212;-82
2024/03/24 10:56:43;;;;;;;3.37;2.50;;;;;;;11.62;44.16;98000.69;6876881;28;20215;-84
2024/03/24 11:00:05;;;;;;;3.07;2.50;;;;;;;11.51;44.62;98009.53;6870999;28;20200;-84
2024/03/24 11:03:26;;;;;;;4.53;3.80;;;;;;;11.24;45.04;97952.41;6878555;28;20213;-83
2024/03/24 11:06:50;;;;;;;5.03;3.27;;;;;;;11.88;44.09;97989.44;6861131;28;20231;-85
2024/03/24 11:10:11;;;;;;;5.13;3.30;;;;;;;11.48;44.93;97985.69;6861401;28;20232;-83
2024/03/24 11:13:34;;;;;;;3.40;2.50;;;;;;;11.66;44.90;98007.25;6862332;28;20209;-84
2024/03/24 11:16:56;;;;;;;3.00;2.80;;;;;;;11.85;43.79;98009.63;6860929;28;20309;-83
2024/03/24 11:20:18;;;;;;;2.93;2.50;;;;;;;11.56;44.54;98005.06;6890312;28;20240;-83
2024/03/24 11:23:40;;;;;;;3.43;2.77;;;;;;;11.19;44.45;97979.25;6889132;28;20343;-83
2024/03/24 11:27:07;;;;;;;3.53;2.50;;;;;;;11.55;44.14;98008.00;6888531;28;20628;-83
2024/03/24 11:30:29;;;;;;;4.17;2.47;;;;;;;11.35;44.32;97975.91;6889008;28;20230;-83
2024/03/24 11:33:58;;;;;;;2.90;2.60;;;;;;;11.22;44.34;97991.47;6886514;28;20204;-83
2024/03/24 11:37:20;;;;;;;3.20;2.60;;;;;;;11.50;43.38;97989.78;6870736;28;20231;-85
2024/03/24 11:40:44;;;;;;;3.30;2.70;;;;;;;11.56;44.21;97977.28;6888805;28;20338;-84
2024/03/24 11:44:07;;;;;;;2.57;2.37;;;;;;;12.02;44.68;97974.66;6888896;28;20231;-83
2024/03/24 11:47:29;;;;;;;3.03;2.50;;;;;;;12.01;44.51;97983.81;6889509;28;20248;-82
2024/03/24 11:50:52;;;;;;;4.43;2.50;;;;;;;12.22;44.70;97988.66;6888970;28;20233;-82
2024/03/24 11:54:14;;;;;;;7.53;2.50;;;;;;;11.99;44.83;97958.91;6891752;28;20242;-81
2024/03/24 11:57:36;;;;;;;2.57;2.30;;;;;;;12.04;44.10;97964.44;6889369;28;20306;-82
2024/03/24 12:01:00;;;;;;;3.30;2.40;;;;;;;11.52;45.57;97943.69;6891205;28;20674;-80
2024/03/24 12:04:20;;;;;;;2.40;2.20;;;;;;;12.04;44.25;97953.63;6890022;28;20225;-80
2024/03/24 12:07:42;;;;;;;3.17;2.80;;;;;;;12.12;44.14;97950.56;6888144;28;20282;-82
2024/03/24 12:11:03;;;;;;;4.40;2.60;;;;;;;12.18;43.26;97945.06;6877354;28;20322;-80
2024/03/24 12:14:27;;;;;;;4.57;2.63;;;;;;;11.49;45.28;97934.16;6889598;28;20201;-83
2024/03/24 12:17:48;;;;;;;2.67;2.47;;;;;;;11.67;45.64;97930.56;6880376;28;20369;-81
2024/03/24 12:21:09;;;;;;;2.67;2.47;;;;;;;11.95;44.65;97939.66;6875654;28;20326;-81
2024/03/24 12:24:30;;;;;;;2.73;2.47;;;;;;;11.49;45.56;97944.13;6892291;28;20216;-80
2024/03/24 12:27:54;;;;;;;3.50;2.53;;;;;;;11.22;45.36;97942.91;6895310;28;20717;-79
2024/03/24 12:31:18;;;;;;;4.63;2.67;;;;;;;11.32;46.27;97922.41;6899737;28;20223;-79
2024/03/24 12:34:44;;;;;;;1.97;1.87;;;;;;;11.18;47.28;97920.97;6901012;28;20200;-80
2024/03/24 12:38:06;;;;;;;4.03;2.20;;;;;;;11.21;48.83;97920.47;6901095;28;20803;-80
2024/03/24 12:41:27;;;;;;;4.10;2.80;;;;;;;11.33;49.65;97929.44;6899798;28;20216;-79
2024/03/24 12:44:49;;;;;;;3.73;2.40;;;;;;;11.08;49.92;97928.78;6881891;28;20364;-80
2024/03/24 12:48:12;;;;;;;2.63;2.17;;;;;;;11.36;49.32;97915.50;6880074;28;20273;-81
2024/03/24 12:51:33;;;;;;;2.30;2.10;;;;;;;11.78;49.08;97927.91;6880934;28;20240;-80
2024/03/24 12:54:55;;;;;;;4.60;2.30;;;;;;;11.20;50.58;97918.84;6895334;28;20319;-81
2024/03/24 12:58:17;;;;;;;2.70;2.33;;;;;;;11.16;50.12;97909.56;6885773;28;20245;-80
2024/03/24 13:01:40;;;;;;;3.13;2.83;;;;;;;11.17;50.09;97918.50;6878104;28;20292;-81
2024/03/24 13:05:04;;;;;;;4.73;2.40;;;;;;;11.29;50.55;97911.25;6892707;28;20342;-81
2024/03/24 13:08:26;;;;;;;4.67;2.50;;;;;;;11.37;50.75;97936.03;6891825;28;20319;-80
2024/03/24 13:11:48;;;;;;;3.70;2.50;;;;;;;11.64;51.21;97950.75;6892256;28;20326;-80
2024/03/24 13:15:10;;;;;;;2.80;2.27;;;;;;;10.69;51.78;97980.53;6891977;28;21052;-80
2024/03/24 13:18:37;;;;;;;2.70;2.50;;;;;;;9.98;55.08;97984.78;6890567;28;20667;-80
2024/03/24 13:22:01;;;;;;;3.87;2.20;;;;;;;9.58;57.25;97972.69;6892013;28;20334;-80
2024/03/24 13:25:23;;;;;;;2.50;2.30;;;;;;;9.75;57.33;97975.69;6892382;28;20211;-80
2024/03/24 13:28:43;;;;;;;3.43;2.63;;;;;;;10.28;55.83;97988.44;6891273;28;20717;-80
2024/03/24 13:32:05;;;;;;;2.50;2.30;;;;;;;10.60;54.36;97963.03;6891359;28;20231;-80
2024/03/24 13:35:27;;;;;;;2.57;2.37;;;;;;;10.87;53.90;97971.59;6891171;28;20209;-80
2024/03/24 13:38:55;;;;;;;7.00;2.40;;;;;;;10.62;54.62;97987.88;6890941;28;20260;-80
2024/03/24 13:42:23;;;;;;;2.60;2.37;;;;;;;10.97;52.46;97967.31;6885648;28;20198;-81
2024/03/24 13:45:54;;;;;;;3.37;2.30;;;;;;;10.79;53.29;97986.22;6864906;28;20540;-80
2024/03/24 13:49:16;;;;;;;5.20;2.93;;;;;;;10.70;53.34;97998.34;6866540;28;20240;-80
2024/03/24 13:52:38;;;;;;;5.63;2.43;;;;;;;11.20;52.95;97993.56;6891976;28;20228;-80
2024/03/24 13:56:00;;;;;;;4.37;2.57;;;;;;;11.31;53.01;97979.28;6874483;28;20208;-80
2024/03/24 13:59:22;;;;;;;3.87;2.83;;;;;;;11.99;52.58;97967.03;6891660;28;20228;-80
2024/03/24 14:02:43;;;;;;;3.17;2.30;;;;;;;12.11;52.17;97976.75;6892394;28;20670;-79
2024/03/24 14:06:05;;;;;;;2.10;1.90;;;;;;;12.24;51.09;97971.13;6891258;28;20231;-80
2024/03/24 14:09:27;;;;;;;2.27;2.07;;;;;;;12.19;50.64;97964.78;6891464;28;20224;-80
2024/03/24 14:13:12;;;;;;;4.43;3.10;;;;;;;11.53;51.42;97965.06;6893699;28;20304;-80
2024/03/24 14:16:43;;;;;;;3.90;3.00;;;;;;;11.76;52.57;97956.19;6890971;28;20247;-80
2024/03/24 14:20:06;;;;;;;2.30;2.10;;;;;;;11.62;51.43;97954.78;6866026;28;20213;-80
2024/03/24 14:23:39;;;;;;;3.83;2.63;;;;;;;11.64;51.71;97953.47;6874831;28;20207;-80
2024/03/24 14:27:00;;;;;;;2.67;2.47;;;;;;;11.55;50.89;97954.00;6864720;28;20233;-80
2024/03/24 14:30:23;;;;;;;2.50;2.13;;;;;;;11.47;52.82;97935.47;6879942;28;20270;-80
2024/03/24 14:33:44;;;;;;;3.53;2.43;;;;;;;10.83;55.33;97938.88;6873751;28;20239;-80
2024/03/24 14:37:14;;;;;;;2.83;2.53;;;;;;;11.73;53.64;97916.97;6882722;28;20251;-80
2024/03/24 14:40:52;;;;;;;2.70;2.43;;;;;;;12.37;52.42;97911.44;6892077;28;20199;-80
2024/03/24 14:44:42;;;;;;;3.40;2.00;;;;;;;12.61;50.95;97895.94;6891342;28;20653;-81
2024/03/24 14:48:11;;;;;;;2.47;2.27;;;;;;;12.85;50.38;97914.56;6881657;28;20585;-80
2024/03/24 14:51:32;;;;;;;3.87;2.40;;;;;;;12.65;49.77;97925.00;6889359;28;20220;-80
2024/03/24 14:54:53;;;;;;;4.03;2.17;;;;;;;12.67;48.21;97905.81;6881105;28;20204;-80
2024/03/24 14:58:18;;;;;;;3.10;2.43;;;;;;;12.18;50.10;97914.50;6882494;28;20253;-80
2024/03/24 15:01:39;;;;;;;5.87;2.37;;;;;;;12.81;48.72;97910.69;6891023;28;20372;-80
2024/03/24 15:05:02;;;;;;;3.60;2.50;;;;;;;12.27;48.80;97910.41;6891853;28;20294;-80
2024/03/24 15:08:24;;;;;;;3.63;2.47;;;;;;;12.11;49.14;97917.31;6891097;28;20370;-81
2024/03/24 15:11:45;;;;;;;3.77;2.40;;;;;;;12.00;48.98;97910.06;6891307;28;20513;-80
2024/03/24 15:15:07;;;;;;;5.33;2.67;;;;;;;12.76;47.57;97910.59;6889350;28;20290;-80
2024/03/24 15:18:29;;;;;;;1.80;1.70;;;;;;;12.10;48.18;97926.47;6872749;28;20279;-81
2024/03/24 15:21:51;;;;;;;2.03;1.93;;;;;;;11.96;48.67;97918.84;6862205;28;20240;-81
2024/03/24 15:25:13;;;;;;;4.90;2.03;;;;;;;12.27;48.50;97921.22;6861429;28;20212;-80
2024/03/24 15:28:35;;;;;;;2.23;2.00;;;;;;;12.31;49.10;97912.38;6861793;28;20319;-82
2024/03/24 15:31:57;;;;;;;2.70;2.50;;;;;;;12.30;49.31;97905.34;6860880;28;20256;-81
2024/03/24 15:35:18;;;;;;;4.20;2.30;;;;;;;12.44;48.86;97900.47;6886989;28;20303;-81
2024/03/24 15:38:42;;;;;;;2.40;2.20;;;;;;;12.67;48.50;97903.09;6888183;28;20238;-82
2024/03/24 15:42:05;;;;;;;4.37;2.13;;;;;;;12.17;47.99;97892.06;6888777;28;20205;-81
2024/03/24 15:45:26;;;;;;;2.13;1.83;;;;;;;11.89;50.01;97920.84;6887717;28;20270;-81
2024/03/24 15:48:47;;;;;;;2.07;1.90;;;;;;;11.96;49.34;97925.09;6887537;28;20224;-80
2024/03/24 15:52:08;;;;;;;1.90;1.70;;;;;;;11.73;48.93;97921.53;6888105;28;20692;-82
2024/03/24 15:55:36;;;;;;;1.77;1.60;;;;;;;11.63;49.51;97913.22;6888874;28;20211;-81
2024/03/24 15:59:15;;;;;;;1.80;1.70;;;;;;;11.77;49.28;97915.47;6888228;28;20233;-82
2024/03/24 16:02:37;;;;;;;1.90;1.80;;;;;;;11.28;49.92;97928.50;6890975;28;20291;-81